createdAt,value
2022-12-23T00:00:12.188Z,7.63
2022-12-23T00:02:39.418Z,7.80
2022-12-23T00:05:09.220Z,7.35
2022-12-23T00:07:36.337Z,7.30
2022-12-23T00:10:04.118Z,8.05
2022-12-23T00:12:49.761Z,7.35
2022-12-23T00:15:16.857Z,8.05
2022-12-23T00:17:45.671Z,8.15
2022-12-23T00:20:15.436Z,8.00
2022-12-23T00:23:01.339Z,10.32
2022-12-23T00:25:40.791Z,8.15
2022-12-23T00:28:15.702Z,8.70
2022-12-23T00:30:47.421Z,9.82
2022-12-23T00:33:15.872Z,8.88
2022-12-23T00:35:44.233Z,9.45
2022-12-23T00:38:11.540Z,13.93
2022-12-23T00:40:57.166Z,25.90
2022-12-23T00:43:24.265Z,9.93
2022-12-23T00:45:52.868Z,9.90
2022-12-23T00:48:38.631Z,10.20
2022-12-23T00:51:05.855Z,14.55
2022-12-23T00:53:32.895Z,14.75
2022-12-23T00:55:59.938Z,26.95
2022-12-23T00:58:27.166Z,11.45
2022-12-23T01:01:12.977Z,23.38
2022-12-23T01:03:58.531Z,14.77
2022-12-23T01:06:25.631Z,11.80
2022-12-23T01:08:52.767Z,10.13
2022-12-23T01:11:19.918Z,20.10
2022-12-23T01:13:47.009Z,12.02
2022-12-23T01:16:17.745Z,12.45
2022-12-23T01:18:45.615Z,20.67
2022-12-23T01:21:12.976Z,21.75
2022-12-23T01:23:40.148Z,15.00
2022-12-23T01:26:08.617Z,12.40
2022-12-23T01:28:36.018Z,11.00
2022-12-23T01:31:05.254Z,10.35
2022-12-23T01:33:33.681Z,10.23
2022-12-23T01:36:02.537Z,11.35
2022-12-23T01:38:30.359Z,11.40
2022-12-23T01:40:57.543Z,12.25
2022-12-23T01:43:47.655Z,15.57
2022-12-23T01:46:15.485Z,11.98
2022-12-23T01:48:47.279Z,10.90
2022-12-23T01:51:19.977Z,11.57
2022-12-23T01:53:55.691Z,18.42
2022-12-23T01:56:28.980Z,10.98
2022-12-23T01:59:00.807Z,10.65
2022-12-23T02:01:48.464Z,11.10
2022-12-23T02:04:22.181Z,10.35
2022-12-23T02:07:09.470Z,11.32
2022-12-23T02:09:39.161Z,11.98
2022-12-23T02:12:22.404Z,11.45
2022-12-23T02:18:01.995Z,10.18
2022-12-23T02:20:40.940Z,10.52
2022-12-23T02:23:29.175Z,12.90
2022-12-23T02:26:16.298Z,11.80
2022-12-23T02:29:24.532Z,15.73
2022-12-23T02:32:13.335Z,14.23
2022-12-23T02:34:45.045Z,14.18
2022-12-23T02:37:36.733Z,11.40
2022-12-23T02:40:27.340Z,11.85
2022-12-23T02:43:12.450Z,12.80
2022-12-23T02:45:44.809Z,11.40
2022-12-23T02:48:26.871Z,12.73
2022-12-23T02:50:56.942Z,12.60
2022-12-23T02:53:40.450Z,12.43
2022-12-23T02:56:11.105Z,13.15
2022-12-23T02:58:45.526Z,12.65
2022-12-23T03:01:15.457Z,12.82
2022-12-23T03:03:44.395Z,12.65
2022-12-23T03:06:23.262Z,12.75
2022-12-23T03:08:53.940Z,13.80
2022-12-23T03:11:21.099Z,13.30
2022-12-23T03:14:11.098Z,13.50
2022-12-23T03:17:02.663Z,12.63
2022-12-23T03:19:48.931Z,12.98
2022-12-23T03:22:26.407Z,13.57
2022-12-23T03:24:56.844Z,12.57
2022-12-23T03:27:49.857Z,11.85
2022-12-23T03:30:23.023Z,12.93
2022-12-23T03:35:38.372Z,10.38
2022-12-23T03:38:09.051Z,12.18
2022-12-23T03:40:43.820Z,13.35
2022-12-23T03:43:18.770Z,12.52
2022-12-23T03:45:52.738Z,12.48
2022-12-23T03:48:40.227Z,12.27
2022-12-23T03:51:14.009Z,13.65
2022-12-23T03:53:52.032Z,12.90
2022-12-23T03:56:41.361Z,11.68
2022-12-23T03:59:19.957Z,12.57
2022-12-23T04:01:58.587Z,12.90
2022-12-23T04:04:44.616Z,12.65
2022-12-23T04:07:16.666Z,12.82
2022-12-23T04:09:44.409Z,12.40
2022-12-23T04:12:11.793Z,12.57
2022-12-23T04:14:50.891Z,13.27
2022-12-23T04:17:18.908Z,12.57
2022-12-23T04:19:46.631Z,11.57
2022-12-23T04:22:14.900Z,11.30
2022-12-23T04:24:42.352Z,10.75
2022-12-23T04:27:13.477Z,11.32
2022-12-23T04:29:40.600Z,11.48
2022-12-23T04:32:08.410Z,11.32
2022-12-23T04:34:35.866Z,11.23
2022-12-23T04:37:02.974Z,11.15
2022-12-23T04:39:30.035Z,11.07
2022-12-23T04:41:57.151Z,10.63
2022-12-23T04:44:24.281Z,11.70
2022-12-23T04:46:51.469Z,11.00
2022-12-23T04:49:18.606Z,11.95
2022-12-23T04:51:45.658Z,11.43
2022-12-23T04:54:12.716Z,10.95
2022-12-23T04:56:39.816Z,10.75
2022-12-23T04:59:06.902Z,11.30
2022-12-23T05:01:34.047Z,11.38
2022-12-23T05:04:01.239Z,12.05
2022-12-23T05:06:28.407Z,11.90
2022-12-23T05:08:55.591Z,10.90
2022-12-23T05:11:22.718Z,11.73
2022-12-23T05:13:49.955Z,10.57
2022-12-23T05:16:17.174Z,10.57
2022-12-23T05:18:44.330Z,10.13
2022-12-23T05:21:11.434Z,9.80
2022-12-23T05:23:39.064Z,10.43
2022-12-23T05:26:06.157Z,9.95
2022-12-23T05:28:33.603Z,9.98
2022-12-23T05:31:03.332Z,9.02
2022-12-23T05:33:31.408Z,9.55
2022-12-23T05:35:58.745Z,10.27
2022-12-23T05:38:26.543Z,9.50
2022-12-23T05:40:53.617Z,10.93
2022-12-23T05:43:21.139Z,9.98
2022-12-23T05:45:49.375Z,9.75
2022-12-23T05:48:16.562Z,10.02
2022-12-23T05:50:43.784Z,11.50
2022-12-23T05:53:10.979Z,11.68
2022-12-23T05:55:38.081Z,10.85
2022-12-23T05:58:05.917Z,11.20
2022-12-23T06:00:33.448Z,11.68
2022-12-23T06:03:00.657Z,10.75
2022-12-23T06:05:28.002Z,11.65
2022-12-23T06:07:55.060Z,12.50
2022-12-23T06:10:23.191Z,12.45
2022-12-23T06:12:50.747Z,11.45
2022-12-23T06:15:18.055Z,12.45
2022-12-23T06:17:45.225Z,12.73
2022-12-23T06:20:20.030Z,12.13
2022-12-23T06:22:48.018Z,11.60
2022-12-23T06:25:15.369Z,13.65
2022-12-23T06:27:42.575Z,12.25
2022-12-23T06:30:11.012Z,12.23
2022-12-23T06:32:38.998Z,11.45
2022-12-23T06:35:07.566Z,15.40
2022-12-23T06:37:35.368Z,11.45
2022-12-23T06:40:02.530Z,15.38
2022-12-23T06:42:31.427Z,12.85
2022-12-23T06:44:58.464Z,12.18
2022-12-23T06:47:25.614Z,11.50
2022-12-23T06:49:52.898Z,10.40
2022-12-23T06:52:19.961Z,10.85
2022-12-23T06:54:47.412Z,11.40
2022-12-23T06:57:14.761Z,12.02
2022-12-23T06:59:41.844Z,11.88
2022-12-23T07:02:11.926Z,12.98
2022-12-23T07:04:39.482Z,10.95
2022-12-23T07:07:07.964Z,14.63
2022-12-23T07:09:35.084Z,12.00
2022-12-23T07:12:03.952Z,13.32
2022-12-23T07:14:31.088Z,13.32
2022-12-23T07:16:58.442Z,11.38
2022-12-23T07:19:25.716Z,11.93
2022-12-23T07:21:52.917Z,12.75
2022-12-23T07:24:20.064Z,11.50
2022-12-23T07:26:47.229Z,10.95
2022-12-23T07:29:14.281Z,11.85
2022-12-23T07:31:41.622Z,11.50
2022-12-23T07:34:09.553Z,11.63
2022-12-23T07:36:36.678Z,11.70
2022-12-23T07:39:04.012Z,11.68
2022-12-23T07:41:31.229Z,10.93
2022-12-23T07:44:06.877Z,12.30
2022-12-23T07:46:34.198Z,12.57
2022-12-23T07:49:01.371Z,12.27
2022-12-23T07:51:28.578Z,11.88
2022-12-23T07:53:55.709Z,12.43
2022-12-23T07:56:22.771Z,14.00
2022-12-23T07:58:54.201Z,12.48
2022-12-23T08:01:22.587Z,14.00
2022-12-23T08:03:49.979Z,11.48
2022-12-23T08:06:17.359Z,13.23
2022-12-23T08:08:46.303Z,12.32
2022-12-23T08:11:14.875Z,12.23
2022-12-23T08:13:43.923Z,13.27
2022-12-23T08:16:12.123Z,12.88
2022-12-23T08:18:41.387Z,12.50
2022-12-23T08:21:18.055Z,10.18
2022-12-23T08:23:48.654Z,12.00
2022-12-23T08:26:21.650Z,13.00
2022-12-23T08:28:49.776Z,12.35
2022-12-23T08:31:22.704Z,11.68
2022-12-23T08:33:52.412Z,13.73
2022-12-23T08:36:23.382Z,12.00
2022-12-23T08:38:53.680Z,13.60
2022-12-23T08:41:25.367Z,12.27
2022-12-23T08:43:53.347Z,10.55
2022-12-23T08:46:20.872Z,12.38
2022-12-23T08:48:49.710Z,12.73
2022-12-23T08:51:19.785Z,14.88
2022-12-23T08:53:47.984Z,12.77
2022-12-23T08:56:21.509Z,13.82
2022-12-23T08:58:50.824Z,13.63
2022-12-23T09:01:20.596Z,13.95
2022-12-23T09:03:48.468Z,13.55
2022-12-23T09:06:30.007Z,14.10
2022-12-23T09:08:58.482Z,13.57
2022-12-23T09:11:27.866Z,13.57
2022-12-23T09:13:55.119Z,13.38
2022-12-23T09:16:22.487Z,14.07
2022-12-23T09:18:49.668Z,12.32
2022-12-23T09:21:19.685Z,12.30
2022-12-23T09:23:46.990Z,13.15
2022-12-23T09:26:20.519Z,14.65
2022-12-23T09:28:47.825Z,13.75
2022-12-23T09:31:15.918Z,12.18
2022-12-23T09:33:46.431Z,16.23
2022-12-23T09:36:13.695Z,16.10
2022-12-23T09:38:40.761Z,19.38
2022-12-23T09:41:10.579Z,13.13
2022-12-23T09:43:54.357Z,13.85
2022-12-23T09:46:27.153Z,12.52
2022-12-23T09:48:57.257Z,13.02
2022-12-23T09:51:24.744Z,18.27
2022-12-23T09:53:59.660Z,12.48
2022-12-23T09:56:31.550Z,14.90
2022-12-23T09:59:14.736Z,15.75
2022-12-23T10:01:52.771Z,13.60
2022-12-23T10:04:23.101Z,14.25
2022-12-23T10:07:31.831Z,12.65
2022-12-23T10:10:08.559Z,12.27
2022-12-23T10:12:40.640Z,11.98
2022-12-23T10:15:26.060Z,11.53
2022-12-23T10:17:57.192Z,12.95
2022-12-23T10:20:35.322Z,11.07
2022-12-23T10:23:02.371Z,11.00
2022-12-23T10:25:36.013Z,9.85
2022-12-23T10:28:04.723Z,11.80
2022-12-23T10:30:57.337Z,10.65
2022-12-23T10:33:37.606Z,12.45
2022-12-23T10:38:43.445Z,10.80
2022-12-23T10:41:56.087Z,11.07
2022-12-23T10:44:47.493Z,11.25
2022-12-23T10:47:27.619Z,11.40
2022-12-23T10:50:16.423Z,10.48
2022-12-23T10:52:45.589Z,10.73
2022-12-23T10:55:31.349Z,11.48
2022-12-23T10:58:18.453Z,10.68
2022-12-23T11:00:54.043Z,9.48
2022-12-23T11:03:31.472Z,10.68
2022-12-23T11:06:00.002Z,9.60
2022-12-23T11:08:30.440Z,10.30
2022-12-23T11:11:00.942Z,10.07
2022-12-23T11:13:36.405Z,10.05
2022-12-23T11:16:26.283Z,9.18
2022-12-23T11:18:59.514Z,9.70
2022-12-23T11:21:27.773Z,10.07
2022-12-23T11:24:14.606Z,10.15
2022-12-23T11:26:42.494Z,8.93
2022-12-23T11:29:40.254Z,9.90
2022-12-23T11:32:16.287Z,9.90
2022-12-23T11:34:46.561Z,9.65
2022-12-23T11:37:37.027Z,9.77
2022-12-23T11:40:06.797Z,10.95
2022-12-23T11:42:35.023Z,8.05
2022-12-23T11:45:07.643Z,9.48
2022-12-23T11:47:41.493Z,10.73
2022-12-23T11:50:27.019Z,9.98
2022-12-23T11:53:19.943Z,9.88
2022-12-23T11:55:59.082Z,9.57
2022-12-23T11:58:28.049Z,9.18
2022-12-23T12:00:58.356Z,9.35
2022-12-23T12:03:36.034Z,10.18
2022-12-23T12:06:06.039Z,9.77
2022-12-23T12:08:38.636Z,9.93
2022-12-23T12:11:13.474Z,9.02
2022-12-23T12:13:44.588Z,10.13
2022-12-23T12:16:34.618Z,8.70
2022-12-23T12:19:29.739Z,8.63
2022-12-23T12:22:04.888Z,9.38
2022-12-23T12:24:39.353Z,9.07
2022-12-23T12:27:08.294Z,9.65
2022-12-23T12:29:45.499Z,10.80
2022-12-23T12:32:40.556Z,7.97
2022-12-23T12:35:16.917Z,7.68
2022-12-23T12:37:46.631Z,9.55
2022-12-23T12:40:36.414Z,10.25
2022-12-23T12:43:33.573Z,9.10
2022-12-23T12:46:06.539Z,8.45
2022-12-23T12:48:58.913Z,9.63
2022-12-23T12:51:38.505Z,8.95
2022-12-23T12:54:14.659Z,8.43
2022-12-23T12:56:48.712Z,8.30
2022-12-23T12:59:22.028Z,8.57
2022-12-23T13:02:16.494Z,8.73
2022-12-23T13:05:12.904Z,8.98
2022-12-23T13:08:00.692Z,9.73
2022-12-23T13:10:51.126Z,8.55
2022-12-23T13:13:39.545Z,9.32
2022-12-23T13:16:25.232Z,7.53
2022-12-23T13:19:03.288Z,7.15
2022-12-23T13:21:58.679Z,8.27
2022-12-23T13:24:54.999Z,7.45
2022-12-23T13:27:48.341Z,5.38
2022-12-23T13:30:18.987Z,6.07
2022-12-23T13:33:45.989Z,6.07
2022-12-23T13:36:41.670Z,6.50
2022-12-23T13:39:20.886Z,6.63
2022-12-23T13:41:52.180Z,6.13
2022-12-23T13:44:20.930Z,5.45
2022-12-23T13:47:24.948Z,6.07
2022-12-23T13:52:57.792Z,6.10
2022-12-23T13:55:48.465Z,6.03
2022-12-23T13:58:22.065Z,6.18
2022-12-23T14:00:59.113Z,6.13
2022-12-23T14:03:33.811Z,5.72
2022-12-23T14:06:25.662Z,6.43
2022-12-23T14:08:55.188Z,7.22
2022-12-23T14:11:28.649Z,6.97
2022-12-23T14:14:06.540Z,6.68
2022-12-23T14:16:39.431Z,6.35
2022-12-23T14:19:18.789Z,7.05
2022-12-23T14:22:04.744Z,5.80
2022-12-23T14:25:21.125Z,6.53
2022-12-23T14:28:12.344Z,5.85
2022-12-23T14:30:47.048Z,5.55
2022-12-23T14:33:18.392Z,6.53
2022-12-23T14:35:45.430Z,6.18
2022-12-23T14:38:15.130Z,5.93
2022-12-23T14:40:42.219Z,6.57
2022-12-23T14:43:55.813Z,6.55
2022-12-23T14:46:35.545Z,5.15
2022-12-23T14:49:37.554Z,6.45
2022-12-23T14:51:51.199Z,6.28
2022-12-23T14:54:37.519Z,5.50
2022-12-23T14:57:16.554Z,7.00
2022-12-23T15:00:02.878Z,6.47
2022-12-23T15:02:37.144Z,6.07
2022-12-23T15:05:05.210Z,6.32
2022-12-23T15:07:42.906Z,5.80
2022-12-23T15:10:19.177Z,6.95
2022-12-23T15:12:56.971Z,6.75
2022-12-23T15:15:26.725Z,6.95
2022-12-23T15:18:11.893Z,5.40
2022-12-23T15:20:39.578Z,6.63
2022-12-23T15:23:12.411Z,6.10
2022-12-23T15:25:50.441Z,5.47
2022-12-23T15:28:23.064Z,6.88
2022-12-23T15:30:55.499Z,6.55
2022-12-23T15:36:32.325Z,6.50
2022-12-23T15:39:00.873Z,7.72
2022-12-23T15:41:28.931Z,7.80
2022-12-23T15:44:01.909Z,8.18
2022-12-23T15:48:58.495Z,8.75
2022-12-23T15:52:05.148Z,8.05
2022-12-23T15:54:42.641Z,7.97
2022-12-23T15:57:25.286Z,7.45
2022-12-23T15:59:53.299Z,7.55
2022-12-23T16:05:25.945Z,8.45
2022-12-23T16:08:10.830Z,8.90
2022-12-23T16:10:39.053Z,9.70
2022-12-23T16:13:17.889Z,8.40
2022-12-23T16:15:45.595Z,8.90
2022-12-23T16:18:25.781Z,9.88
2022-12-23T16:21:05.627Z,9.73
2022-12-23T16:23:37.312Z,9.85
2022-12-23T16:26:04.759Z,10.32
2022-12-23T16:28:44.403Z,10.40
2022-12-23T16:31:16.710Z,10.27
2022-12-23T16:33:55.544Z,8.95
2022-12-23T16:36:37.668Z,9.75
2022-12-23T16:39:09.218Z,9.45
2022-12-23T16:41:36.753Z,10.43
2022-12-23T16:44:06.795Z,10.45
2022-12-23T16:46:38.773Z,10.43
2022-12-23T16:49:12.223Z,10.93
2022-12-23T16:51:42.139Z,10.18
2022-12-23T16:54:14.716Z,11.20
2022-12-23T16:56:43.240Z,11.40
2022-12-23T16:59:11.280Z,11.15
2022-12-23T17:01:45.324Z,11.60
2022-12-23T17:04:12.922Z,11.18
2022-12-23T17:06:40.917Z,11.18
2022-12-23T17:09:11.405Z,10.27
2022-12-23T17:11:53.126Z,12.95
2022-12-23T17:14:22.444Z,12.07
2022-12-23T17:16:51.072Z,11.40
2022-12-23T17:19:25.604Z,11.52
2022-12-23T17:22:00.132Z,11.20
2022-12-23T17:24:27.444Z,10.68
2022-12-23T17:26:55.442Z,11.60
2022-12-23T17:29:22.666Z,12.13
2022-12-23T17:31:50.818Z,12.05
2022-12-23T17:34:21.252Z,13.23
2022-12-23T17:36:50.651Z,12.50
2022-12-23T17:39:19.412Z,12.07
2022-12-23T17:41:46.893Z,12.85
2022-12-23T17:44:15.795Z,11.85
2022-12-23T17:46:43.536Z,8.15
2022-12-23T17:49:10.696Z,11.38
2022-12-23T17:51:40.190Z,11.60
2022-12-23T17:54:16.772Z,11.00
2022-12-23T17:56:43.829Z,10.98
2022-12-23T17:59:10.933Z,10.70
2022-12-23T18:01:38.250Z,10.55
2022-12-23T18:04:05.559Z,11.45
2022-12-23T18:06:33.350Z,10.20
2022-12-23T18:09:00.506Z,8.93
2022-12-23T18:11:44.806Z,11.88
2022-12-23T18:14:23.899Z,10.68
2022-12-23T18:16:51.122Z,9.63
2022-12-23T18:19:20.156Z,9.43
2022-12-23T18:21:47.961Z,10.63
2022-12-23T18:24:18.304Z,9.65
2022-12-23T18:26:45.547Z,10.10
2022-12-23T18:29:12.695Z,9.60
2022-12-23T18:31:51.155Z,9.63
2022-12-23T18:34:19.752Z,9.95
2022-12-23T18:36:48.540Z,9.68
2022-12-23T18:39:16.950Z,9.15
2022-12-23T18:41:44.062Z,9.95
2022-12-23T18:44:20.836Z,8.85
2022-12-23T18:46:49.154Z,8.55
2022-12-23T18:49:16.365Z,8.73
2022-12-23T18:51:43.940Z,8.95
2022-12-23T18:54:15.396Z,7.93
2022-12-23T18:56:43.478Z,8.93
2022-12-23T18:59:17.093Z,8.15
2022-12-23T19:01:44.896Z,8.02
2022-12-23T19:04:12.206Z,7.82
2022-12-23T19:06:40.083Z,7.60
2022-12-23T19:09:07.698Z,8.25
2022-12-23T19:11:36.452Z,8.82
2022-12-23T19:14:03.891Z,8.60
2022-12-23T19:16:34.155Z,8.85
2022-12-23T19:19:01.407Z,8.82
2022-12-23T19:21:28.721Z,8.55
2022-12-23T19:23:56.088Z,8.90
2022-12-23T19:26:23.321Z,8.30
2022-12-23T19:28:50.419Z,7.65
2022-12-23T19:31:17.992Z,9.60
2022-12-23T19:33:46.976Z,7.65
2022-12-23T19:36:20.033Z,7.85
2022-12-23T19:38:47.602Z,8.57
2022-12-23T19:41:15.331Z,8.02
2022-12-23T19:43:44.429Z,7.00
2022-12-23T19:46:13.375Z,7.80
2022-12-23T19:48:40.688Z,8.73
2022-12-23T19:51:13.615Z,8.02
2022-12-23T19:53:42.198Z,8.43
2022-12-23T19:56:14.889Z,8.93
2022-12-23T19:58:44.098Z,8.20
2022-12-23T20:01:20.306Z,7.20
2022-12-23T20:03:48.649Z,8.45
2022-12-23T20:06:26.937Z,8.15
2022-12-23T20:09:00.148Z,8.07
2022-12-23T20:11:30.759Z,9.27
2022-12-23T20:13:59.052Z,8.10
2022-12-23T20:16:27.002Z,9.50
2022-12-23T20:18:54.451Z,8.70
2022-12-23T20:21:21.829Z,9.02
2022-12-23T20:23:49.461Z,7.85
2022-12-23T20:26:17.953Z,8.65
2022-12-23T20:28:45.786Z,7.40
2022-12-23T20:31:20.389Z,8.07
2022-12-23T20:33:48.268Z,7.63
2022-12-23T20:36:17.337Z,7.65
2022-12-23T20:38:46.019Z,8.30
2022-12-23T20:41:15.872Z,7.95
2022-12-23T20:43:46.025Z,9.02
2022-12-23T20:46:20.535Z,8.50
2022-12-23T20:48:48.544Z,9.85
2022-12-23T20:51:18.300Z,8.25
2022-12-23T20:53:45.834Z,8.45
2022-12-23T20:56:15.396Z,7.30
2022-12-23T20:58:55.875Z,8.70
2022-12-23T21:01:33.740Z,8.82
2022-12-23T21:04:04.155Z,8.07
2022-12-23T21:06:32.276Z,8.75
2022-12-23T21:09:00.761Z,8.48
2022-12-23T21:11:29.740Z,8.57
2022-12-23T21:14:02.636Z,8.15
2022-12-23T21:16:33.643Z,7.63
2022-12-23T21:19:00.925Z,8.23
2022-12-23T21:21:31.166Z,7.40
2022-12-23T21:24:04.631Z,7.55
2022-12-23T21:26:33.644Z,7.30
2022-12-23T21:29:02.447Z,8.02
2022-12-23T21:31:31.522Z,8.20
2022-12-23T21:33:59.168Z,7.70
2022-12-23T21:36:31.831Z,7.80
2022-12-23T21:39:00.210Z,7.82
2022-12-23T21:41:30.307Z,7.70
2022-12-23T21:43:59.913Z,7.20
2022-12-23T21:46:28.734Z,7.75
2022-12-23T21:48:57.342Z,8.07
2022-12-23T21:51:25.920Z,8.45
2022-12-23T21:53:56.705Z,8.27
2022-12-23T21:56:29.703Z,7.15
2022-12-23T21:58:58.782Z,7.47
2022-12-23T22:01:26.085Z,8.00
2022-12-23T22:03:54.443Z,7.03
2022-12-23T22:06:30.204Z,7.68
2022-12-23T22:08:58.270Z,7.82
2022-12-23T22:11:29.524Z,9.15
2022-12-23T22:13:57.827Z,8.60
2022-12-23T22:16:27.483Z,7.95
2022-12-23T22:18:56.288Z,7.95
2022-12-23T22:21:25.554Z,7.85
2022-12-23T22:23:54.266Z,7.63
2022-12-23T22:26:25.824Z,8.20
2022-12-23T22:28:58.929Z,7.60
2022-12-23T22:31:31.469Z,8.00
2022-12-23T22:33:58.883Z,7.72
2022-12-23T22:36:26.270Z,8.25
2022-12-23T22:38:55.742Z,7.55
2022-12-23T22:41:24.623Z,7.15
2022-12-23T22:43:51.927Z,9.25
2022-12-23T22:46:19.410Z,7.95
2022-12-23T22:48:46.907Z,8.20
2022-12-23T22:51:24.806Z,6.38
2022-12-23T22:53:52.236Z,6.95
2022-12-23T22:56:21.917Z,7.75
2022-12-23T22:58:50.211Z,7.13
2022-12-23T23:01:29.438Z,7.28
2022-12-23T23:03:59.208Z,7.13
2022-12-23T23:06:30.970Z,7.57
2022-12-23T23:08:58.374Z,7.57
2022-12-23T23:11:26.981Z,7.93
2022-12-23T23:13:55.103Z,8.65
2022-12-23T23:16:22.299Z,8.73
2022-12-23T23:18:49.623Z,8.50
2022-12-23T23:21:16.968Z,9.02
2022-12-23T23:23:44.381Z,9.57
2022-12-23T23:26:11.597Z,9.50
2022-12-23T23:28:40.392Z,8.52
2022-12-23T23:33:57.973Z,8.65
2022-12-23T23:36:25.387Z,10.50
2022-12-23T23:38:52.585Z,9.82
2022-12-23T23:41:23.186Z,9.65
2022-12-23T23:43:51.712Z,10.23
2022-12-23T23:46:19.053Z,10.05
2022-12-23T23:48:46.188Z,9.65
2022-12-23T23:51:13.427Z,10.50
2022-12-23T23:53:40.834Z,11.02
2022-12-23T23:56:09.270Z,10.27
2022-12-23T23:58:37.668Z,10.95
